This is the latest recevied weather packets stored in our database for station/object GW1490. If no packets are shown the sender has not sent any weather packets the latest 10 day(s).
| Time | Temp. | Humidity | Pressure | Rain* | Wind** | Luminosity | Snow |
|---|---|---|---|---|---|---|---|
| 1777547553 | 9.44° C | 84% | 995.2 hPa | 0 mm | - | - | - |
| 1777543972 | 9.44° C | 87% | 993.9 hPa | 0 mm | - | - | - |
| 1777541793 | 8.89° C | 97% | 994.2 hPa | 0 mm | - | - | - |
| 1777541092 | 9.44° C | 95% | 993.9 hPa | 0 mm | - | - | - |
| 1777539636 | 10.56° C | 87% | 994.2 hPa | 0 mm | - | - | - |
| 1777533490 | 12.22° C | 87% | 994.2 hPa | 0 mm | - | - | - |
| 1777533164 | 12.22° C | 86% | 994.2 hPa | 0 mm | - | - | - |
| 1777529177 | 12.78° C | 85% | 994.5 hPa | 0 mm | - | - | - |
| 1777525575 | 13.33° C | 89% | 994.2 hPa | 0 mm | - | - | - |
| 1777523807 | 13.33° C | 90% | 993.9 hPa | 0 mm | - | - | - |
| 1777522339 | 13.89° C | 92% | 993.9 hPa | 0 mm | - | - | - |
| 1777519854 | 13.33° C | 99% | 993.9 hPa | 12.19 mm | - | - | - |
| 1777518740 | 13.33° C | 99% | 993.9 hPa | 12.19 mm | - | - | - |
| 1777518380 | 13.33° C | 99% | 993.9 hPa | 12.19 mm | - | - | - |
| 1777515869 | 13.33° C | 99% | 993.5 hPa | 12.19 mm | - | - | - |
| 1777515498 | 13.33° C | 99% | 993.5 hPa | 12.19 mm | - | - | - |
| 1777515131 | 13.33° C | 99% | 993.5 hPa | 12.19 mm | - | - | - |
| 1777512973 | 13.33° C | 99% | 993.2 hPa | 12.19 mm | - | - | - |
| 1777507957 | 15.56° C | 93% | 992.8 hPa | 12.19 mm | - | - | - |
| 1777421908 | 20° C | 87% | 994.5 hPa | 10.41 mm | - | - | - |
| 1777347395 | 21.67° C | 46% | 996.9 hPa | 0 mm | - | - | - |
| 1777346688 | 22.22° C | 45% | 996.9 hPa | 0 mm | - | - | - |
| 1777337298 | 23.33° C | 46% | 995.5 hPa | 0 mm | - | - | - |
| 1777335889 | 21.11° C | 64% | 995.2 hPa | 0 mm | - | - | - |
| 1777332627 | 22.78° C | 62% | 995.5 hPa | 0 mm | - | - | - |
* Rain since midnight (hover to see other rain measurements)
** Current wind speed in m/s (hover to see current wind gust speed)